Time;durP1;ratioP1;P1;durP2;ratioP2;P2;SDS_P1;SDS_P2;PMS_P1;PMS_P2;Temp;Humidity;BMP_temperature;BMP_pressure;BME280_temperature;BME280_humidity;BME280_pressure;Samples;Min_cycle;Max_cycle;Signal;HPM_P1;HPM_P2
2022/06/20 00:01:35;;;;;;;9.48;4.63;;;588.90;2073.60;;;;;;5109171;28;20070;-78
2022/06/20 00:04:01;;;;;;;10.88;4.20;;;588.80;2099.20;;;;;;5093516;28;20016;-78
2022/06/20 00:06:27;;;;;;;8.73;4.97;;;564.10;2099.20;;;;;;5093717;28;20530;-78
2022/06/20 00:08:54;;;;;;;9.70;4.88;;;564.10;2124.80;;;;;;5093406;28;20564;-78
2022/06/20 00:11:27;;;;;;;7.45;4.82;;;563.90;2150.40;;;;;;5093478;28;20027;-79
2022/06/20 00:13:54;;;;;;;15.05;4.57;;;563.90;2176.00;;;;;;5093359;28;20042;-79
2022/06/20 00:16:22;;;;;;;9.25;5.28;;;563.80;2201.60;;;;;;5093590;28;20050;-78
2022/06/20 00:18:49;;;;;;;14.88;5.50;;;563.80;2201.60;;;;;;5093613;28;20027;-78
2022/06/20 00:21:17;;;;;;;5.63;3.90;;;563.80;2201.60;;;;;;5093423;28;20035;-78
2022/06/20 00:23:43;;;;;;;10.10;4.82;;;563.80;2227.20;;;;;;5093710;28;20016;-79
2022/06/20 00:26:09;;;;;;;8.63;4.97;;;563.70;2227.20;;;;;;5111695;28;20389;-79
2022/06/20 00:28:35;;;;;;;8.73;4.85;;;563.60;2227.20;;;;;;5093486;28;20027;-79
2022/06/20 00:31:02;;;;;;;11.55;4.90;;;563.60;2227.20;;;;;;5093483;28;20024;-78
2022/06/20 00:33:28;;;;;;;10.43;4.72;;;563.50;2252.80;;;;;;5111666;28;20016;-79
2022/06/20 00:35:54;;;;;;;7.80;4.72;;;538.40;2278.40;;;;;;5093422;28;20061;-79
2022/06/20 00:38:22;;;;;;;9.05;4.43;;;563.50;2278.40;;;;;;5093018;28;20513;-78
2022/06/20 00:40:52;;;;;;;9.93;4.18;;;563.40;2304.00;;;;;;5095909;28;20040;-79
2022/06/20 00:43:26;;;;;;;7.07;4.28;;;563.40;2432.00;;;;;;5112712;28;20040;-79
2022/06/20 00:45:55;;;;;;;9.70;5.00;;;563.40;2278.40;;;;;;5096993;28;20036;-78
2022/06/20 00:48:34;;;;;;;7.45;4.20;;;563.30;2304.00;;;;;;5096933;28;20039;-78
2022/06/20 00:51:11;;;;;;;7.20;4.65;;;563.30;2304.00;;;;;;5112837;28;20015;-79
2022/06/20 00:53:50;;;;;;;8.27;5.25;;;563.20;2304.00;;;;;;5094317;28;20020;-79
2022/06/20 00:56:36;;;;;;;8.23;4.43;;;563.20;2304.00;;;;;;5096762;28;20077;-79
2022/06/20 00:59:08;;;;;;;6.20;4.53;;;563.20;2278.40;;;;;;5112776;28;20062;-78
2022/06/20 01:01:41;;;;;;;10.32;5.15;;;563.20;2278.40;;;;;;5114758;28;20023;-78
2022/06/20 01:04:47;;;;;;;7.10;4.30;;;563.20;2252.80;;;;;;5096780;28;20028;-79
2022/06/20 01:07:20;;;;;;;7.53;3.92;;;563.30;2252.80;;;;;;5031770;28;20045;-78
2022/06/20 01:09:50;;;;;;;7.45;4.18;;;563.30;2201.60;;;;;;5015424;28;20043;-79
2022/06/20 01:12:19;;;;;;;6.80;4.53;;;563.40;2176.00;;;;;;5015431;28;20024;-78
2022/06/20 01:14:45;;;;;;;7.63;4.10;;;563.40;2176.00;;;;;;5015198;28;20040;-78
2022/06/20 01:17:24;;;;;;;5.20;3.97;;;563.50;2176.00;;;;;;5032073;28;20089;-78
2022/06/20 01:19:58;;;;;;;5.47;4.35;;;563.50;2124.80;;;;;;5015528;28;20112;-78
2022/06/20 01:22:24;;;;;;;6.82;4.28;;;563.50;2124.80;;;;;;5015120;28;20491;-78
2022/06/20 01:25:25;;;;;;;4.93;4.03;;;563.50;2099.20;;;;;;5032117;28;20025;-79
2022/06/20 01:27:52;;;;;;;7.05;3.88;;;563.50;2073.60;;;;;;4956983;28;20497;-78
2022/06/20 01:30:20;;;;;;;7.22;3.88;;;563.50;2073.60;;;;;;4972293;28;20035;-79
2022/06/20 01:32:46;;;;;;;5.97;3.40;;;563.50;2048.00;;;;;;4972884;28;20043;-79
2022/06/20 01:37:23;;;;;;;7.53;4.20;;;563.60;2048.00;;;;;;4972932;28;20062;-78
2022/06/20 01:38:02;;;;;;;8.32;3.58;;;563.70;2022.40;;;;;;4972556;28;20041;-78
2022/06/20 01:40:29;;;;;;;6.50;3.20;;;563.70;1996.80;;;;;;4991041;28;20487;-79
2022/06/20 01:42:56;;;;;;;7.47;3.58;;;563.70;1996.80;;;;;;5060139;28;20540;-78
2022/06/20 01:48:11;;;;;;;8.80;3.80;;;563.90;1971.20;;;;;;5059875;28;20028;-78
2022/06/20 01:50:39;;;;;;;6.22;4.05;;;563.90;1945.60;;;;;;5059981;28;20146;-78
2022/06/20 01:53:08;;;;;;;5.82;4.05;;;564.00;1945.60;;;;;;5077883;28;20058;-78
2022/06/20 01:55:35;;;;;;;5.65;3.55;;;563.90;1945.60;;;;;;5061991;28;20094;-78
2022/06/20 01:58:09;;;;;;;10.27;4.07;;;563.90;1945.60;;;;;;5060077;28;20556;-79
2022/06/20 02:00:36;;;;;;;5.38;3.25;;;563.90;1971.20;;;;;;5059726;28;20090;-79
2022/06/20 02:03:08;;;;;;;6.53;3.85;;;563.80;1971.20;;;;;;5057772;28;20079;-77
2022/06/20 02:05:34;;;;;;;6.70;4.07;;;563.90;1971.20;;;;;;5106397;28;20109;-79
2022/06/20 02:08:02;;;;;;;10.15;3.78;;;;;;;;;;5095059;28;20032;-78
2022/06/20 02:10:45;;;;;;;9.05;3.70;;;;;;;;;;5095531;28;20054;-78
2022/06/20 02:13:13;;;;;;;6.50;3.80;;;;;;;;;;5093670;28;20038;-79
2022/06/20 02:15:40;;;;;;;7.63;4.05;;;;;;;;;;5095290;28;20039;-79
2022/06/20 02:18:07;;;;;;;5.97;3.78;;;;;;;;;;5095228;28;20016;-78
2022/06/20 02:20:45;;;;;;;7.38;3.65;;;589.00;1868.80;;;;;;5113249;28;20034;-79
2022/06/20 02:23:13;;;;;;;6.97;4.60;;;588.90;1868.80;;;;;;5111798;28;20038;-78
2022/06/20 02:25:42;;;;;;;6.90;3.53;;;564.10;1920.00;;;;;;5094548;28;20055;-78
2022/06/20 02:28:19;;;;;;;7.93;3.60;;;564.00;1945.60;;;;;;5095007;28;20435;-79
2022/06/20 02:30:45;;;;;;;4.55;3.42;;;564.10;1945.60;;;;;;5110728;28;20550;-78
2022/06/20 02:33:22;;;;;;;4.65;3.63;;;564.10;1945.60;;;;;;5112155;28;20028;-78
2022/06/20 02:35:49;;;;;;;6.88;3.95;;;563.90;1971.20;;;;;;5093011;28;20020;-78
2022/06/20 02:38:15;;;;;;;6.70;3.85;;;563.80;1996.80;;;;;;5112933;28;20024;-79
2022/06/20 02:40:44;;;;;;;5.47;3.50;;;563.70;2048.00;;;;;;5094148;28;20066;-78
2022/06/20 02:43:30;;;;;;;6.18;3.78;;;563.60;2073.60;;;;;;5112631;28;20508;-79
2022/06/20 02:45:58;;;;;;;6.50;4.00;;;563.50;2099.20;;;;;;5093591;28;20024;-78
2022/06/20 02:48:27;;;;;;;11.65;4.65;;;563.40;2124.80;;;;;;5091892;28;20027;-78
2022/06/20 02:50:57;;;;;;;9.48;3.80;;;563.20;2150.40;;;;;;5112866;28;20034;-79
2022/06/20 02:53:49;;;;;;;9.38;4.78;;;563.20;2124.80;;;;;;5094518;28;20012;-78
2022/06/20 02:56:20;;;;;;;4.93;3.78;;;538.50;2150.40;;;;;;5093493;28;20024;-79
2022/06/20 02:58:54;;;;;;;8.10;4.72;;;538.20;2176.00;;;;;;5091619;28;20038;-78
2022/06/20 03:01:49;;;;;;;6.43;4.05;;;538.20;2201.60;;;;;;5094118;28;20037;-78
2022/06/20 03:04:16;;;;;;;5.63;4.35;;;538.30;2176.00;;;;;;5111232;28;20025;-79
2022/06/20 03:06:47;;;;;;;8.95;4.65;;;538.30;2176.00;;;;;;5093991;28;20020;-78
2022/06/20 03:09:18;;;;;;;7.40;4.35;;;538.30;2176.00;;;;;;5112264;28;20015;-78
2022/06/20 03:11:44;;;;;;;5.20;4.40;;;538.40;2176.00;;;;;;5094202;28;20016;-78
2022/06/20 03:14:16;;;;;;;9.35;4.88;;;538.40;2150.40;;;;;;5093328;28;20027;-78
2022/06/20 03:16:42;;;;;;;11.70;4.78;;;538.40;2150.40;;;;;;5112527;28;20015;-78
2022/06/20 03:19:16;;;;;;;12.38;5.47;;;538.20;2176.00;;;;;;5093919;28;20015;-79
2022/06/20 03:21:43;;;;;;;9.50;5.10;;;538.20;2201.60;;;;;;5112314;28;20020;-78
2022/06/20 03:24:14;;;;;;;12.40;5.38;;;538.20;2176.00;;;;;;5093844;28;20015;-78
2022/06/20 03:26:41;;;;;;;13.70;5.07;;;538.30;2176.00;;;;;;5112101;28;20027;-79
2022/06/20 03:29:15;;;;;;;10.63;4.35;;;538.40;2176.00;;;;;;5112376;28;20019;-79
2022/06/20 03:31:43;;;;;;;16.73;4.93;;;538.30;2176.00;;;;;;5093810;28;20020;-78
2022/06/20 03:34:09;;;;;;;10.77;4.55;;;538.20;2176.00;;;;;;5112363;28;20203;-79
2022/06/20 03:36:35;;;;;;;14.13;5.10;;;538.20;2176.00;;;;;;5111986;28;20093;-78
2022/06/20 03:39:03;;;;;;;9.30;6.03;;;538.20;2176.00;;;;;;5112160;28;20081;-78
2022/06/20 03:41:29;;;;;;;10.18;5.07;;;538.20;2176.00;;;;;;5093505;28;20173;-78
2022/06/20 03:44:03;;;;;;;8.43;5.15;;;538.20;2201.60;;;;;;5112110;28;20094;-78
2022/06/20 03:46:35;;;;;;;9.73;5.10;;;538.20;2227.20;;;;;;5093890;28;20034;-78
2022/06/20 03:49:22;;;;;;;8.25;4.18;;;538.10;2252.80;;;;;;5111956;28;20034;-78
2022/06/20 03:52:14;;;;;;;9.35;5.03;;;538.10;2252.80;;;;;;5109428;28;20031;-78
2022/06/20 03:54:56;;;;;;;7.10;5.05;;;538.10;2278.40;;;;;;5028584;28;20041;-79
2022/06/20 03:57:49;;;;;;;9.18;4.68;;;537.90;2329.60;;;;;;5012968;28;20307;-79
2022/06/20 04:00:27;;;;;;;8.57;5.15;;;537.80;2355.20;;;;;;5010999;28;20045;-79
2022/06/20 04:03:03;;;;;;;9.45;4.80;;;537.80;2380.80;;;;;;5029437;28;20503;-78
2022/06/20 04:05:36;;;;;;;6.90;4.68;;;537.80;2406.40;;;;;;5012962;28;20041;-78
2022/06/20 04:08:14;;;;;;;10.77;4.88;;;537.80;2406.40;;;;;;5012645;28;20160;-78
2022/06/20 04:10:58;;;;;;;7.88;5.28;;;537.80;2406.40;;;;;;5012671;28;20026;-78
2022/06/20 04:14:01;;;;;;;14.13;5.53;;;537.80;2406.40;;;;;;5012684;28;20033;-79
2022/06/20 04:16:39;;;;;;;10.73;5.40;;;537.90;2406.40;;;;;;5016599;28;20130;-78
2022/06/20 04:19:18;;;;;;;11.93;5.78;;;537.90;2406.40;;;;;;5016346;28;20026;-78
2022/06/20 04:21:55;;;;;;;8.80;5.50;;;538.00;2406.40;;;;;;5032914;28;20108;-78
2022/06/20 04:24:42;;;;;;;10.05;5.40;;;538.00;2406.40;;;;;;5033123;28;20160;-78
2022/06/20 04:27:25;;;;;;;9.15;4.68;;;538.10;2406.40;;;;;;5030136;28;20075;-78
2022/06/20 04:30:00;;;;;;;10.07;4.57;;;538.10;2406.40;;;;;;5049337;28;20137;-79
2022/06/20 04:32:46;;;;;;;8.50;5.60;;;538.20;2406.40;;;;;;5084383;28;20027;-78
2022/06/20 04:35:31;;;;;;;8.55;5.00;;;538.30;2406.40;;;;;;5113332;28;20099;-79
2022/06/20 04:38:12;;;;;;;11.95;5.43;;;538.40;2406.40;;;;;;5095700;28;20020;-78
2022/06/20 04:40:45;;;;;;;12.55;5.28;;;538.50;2406.40;;;;;;5095181;28;20044;-79
2022/06/20 04:43:58;;;;;;;9.25;4.72;;;563.20;2432.00;;;;;;5094587;28;20016;-78
2022/06/20 04:46:41;;;;;;;11.57;4.85;;;563.30;2432.00;;;;;;4996425;28;20113;-78
2022/06/20 04:49:12;;;;;;;6.20;3.92;;;563.50;2432.00;;;;;;4996174;28;20026;-79
2022/06/20 04:51:40;;;;;;;30.38;6.20;;;563.60;2380.80;;;;;;5012658;28;20034;-79
2022/06/20 04:54:13;;;;;;;14.57;5.55;;;563.70;2380.80;;;;;;4996325;28;20105;-79
2022/06/20 04:56:40;;;;;;;11.60;4.80;;;563.80;2329.60;;;;;;5012608;28;20037;-79
2022/06/20 04:59:12;;;;;;;7.47;4.43;;;564.00;2329.60;;;;;;4995904;28;20030;-78
2022/06/20 05:01:38;;;;;;;10.05;4.47;;;564.00;2278.40;;;;;;5012192;28;20137;-77
2022/06/20 05:04:23;;;;;;;71.88;12.45;;;564.10;2227.20;;;;;;5012661;28;20506;-79
2022/06/20 05:06:50;;;;;;;8.18;3.72;;;588.80;2201.60;;;;;;4995428;28;20072;-78
2022/06/20 05:09:19;;;;;;;15.90;3.90;;;588.90;2176.00;;;;;;5012136;28;20034;-79
2022/06/20 05:11:50;;;;;;;8.32;3.70;;;589.10;2176.00;;;;;;4995993;28;20105;-76
2022/06/20 05:14:30;;;;;;;8.27;4.13;;;589.20;2124.80;;;;;;5010104;28;20036;-78
2022/06/20 05:16:56;;;;;;;5.88;3.05;;;589.30;2022.40;;;;;;4999724;28;20057;-78
2022/06/20 05:19:28;;;;;;;9.27;2.83;;;589.30;2022.40;;;;;;5012699;28;20460;-77
2022/06/20 05:21:59;;;;;;;10.43;3.72;;;589.50;1996.80;;;;;;5047785;28;20512;-77
2022/06/20 05:24:32;;;;;;;4.20;2.47;;;589.70;1996.80;;;;;;5102493;28;20031;-77
2022/06/20 05:27:01;;;;;;;8.38;2.70;;;614.40;1920.00;;;;;;5109697;28;20066;-76
2022/06/20 05:29:30;;;;;;;11.63;2.67;;;614.40;1868.80;;;;;;5106209;28;20027;-76
2022/06/20 05:32:02;;;;;;;10.43;3.20;;;614.50;1894.40;;;;;;5100466;28;20141;-75
2022/06/20 05:34:35;;;;;;;6.18;2.97;;;614.70;1868.80;;;;;;5114430;28;20024;-76
2022/06/20 05:37:13;;;;;;;3.67;2.75;;;614.80;1817.60;;;;;;5096215;28;20374;-76
2022/06/20 05:40:24;;;;;;;6.82;2.20;;;614.80;1817.60;;;;;;5094164;28;20016;-77
2022/06/20 05:42:49;;;;;;;9.82;2.60;;;614.80;1766.40;;;;;;5094235;28;20040;-77
2022/06/20 05:45:18;;;;;;;6.28;2.40;;;614.90;1766.40;;;;;;5103905;28;20023;-77
2022/06/20 05:47:50;;;;;;;5.47;2.83;;;615.00;1740.80;;;;;;5082037;28;20077;-77
2022/06/20 05:50:27;;;;;;;9.85;3.03;;;615.10;1740.80;;;;;;5096021;28;20055;-76
2022/06/20 05:52:54;;;;;;;4.63;2.35;;;615.20;1740.80;;;;;;5097111;28;21531;-79
2022/06/20 05:55:27;;;;;;;6.40;2.70;;;615.00;1715.20;;;;;;5102750;28;20023;-77
2022/06/20 05:57:56;;;;;;;8.48;2.30;;;640.00;1715.20;;;;;;5099709;28;20048;-76
2022/06/20 06:00:26;;;;;;;3.90;2.42;;;640.10;1715.20;;;;;;5114003;28;20089;-77
2022/06/20 06:02:57;;;;;;;6.50;2.75;;;640.20;1689.60;;;;;;5094675;28;20032;-77
2022/06/20 06:05:34;;;;;;;10.73;2.63;;;640.30;1664.00;;;;;;5083407;28;20077;-77
2022/06/20 06:08:18;;;;;;;8.23;2.30;;;640.40;1664.00;;;;;;5113879;28;20024;-77
2022/06/20 06:10:59;;;;;;;6.45;2.50;;;640.50;1638.40;;;;;;5113458;28;20094;-78
2022/06/20 06:13:44;;;;;;;13.57;4.22;;;640.50;1612.80;;;;;;5112041;28;20027;-78
2022/06/20 06:19:52;;;;;;;6.53;3.10;;;640.80;1612.80;;;;;;5111783;28;20089;-77
2022/06/20 06:22:40;;;;;;;8.77;3.25;;;640.90;1587.20;;;;;;5031251;28;20041;-78
2022/06/20 06:25:23;;;;;;;5.80;2.60;;;665.60;1638.40;;;;;;5014024;28;20029;-77
2022/06/20 06:27:53;;;;;;;5.90;2.30;;;665.60;1638.40;;;;;;5030936;28;20030;-77
2022/06/20 06:30:29;;;;;;;4.05;2.63;;;665.90;1612.80;;;;;;5010888;28;20017;-78
2022/06/20 06:33:22;;;;;;;5.18;2.90;;;666.00;1587.20;;;;;;5027238;28;20041;-78
2022/06/20 06:35:58;;;;;;;3.30;2.22;;;666.20;1587.20;;;;;;5014177;28;20462;-75
2022/06/20 06:38:32;;;;;;;;;;;666.30;1587.20;;;;;;5030395;28;20026;-76
2022/06/20 06:41:00;;;;;;;2.60;1.98;;;666.30;1561.60;;;;;;5030458;28;19917;-75
2022/06/20 06:43:43;;;;;;;5.18;2.42;;;666.40;1561.60;;;;;;5049181;28;20028;-75
2022/06/20 06:46:19;;;;;;;4.95;2.72;;;666.50;1561.60;;;;;;5036562;28;20060;-76
2022/06/20 06:48:57;;;;;;;5.90;2.92;;;691.30;1561.60;;;;;;5050311;28;20086;-76
2022/06/20 06:51:22;;;;;;;5.50;2.97;;;691.50;1510.40;;;;;;5031840;28;20034;-75
2022/06/20 06:54:03;;;;;;;4.18;2.30;;;691.50;1510.40;;;;;;5040987;28;20031;-77
2022/06/20 06:56:29;;;;;;;5.28;2.45;;;691.50;1510.40;;;;;;5045792;28;20036;-78
2022/06/20 06:59:13;;;;;;;8.07;2.67;;;691.60;1510.40;;;;;;5088947;27;20031;-77
2022/06/20 07:01:46;;;;;;;10.02;3.17;;;691.70;1510.40;;;;;;5094812;28;20048;-76
2022/06/20 07:04:16;;;;;;;5.57;2.47;;;691.70;1510.40;;;;;;5125094;27;20033;-76
2022/06/20 07:06:54;;;;;;;7.50;2.55;;;691.90;1536.00;;;;;;5118937;27;20476;-77
2022/06/20 07:09:28;;;;;;;4.72;3.08;;;691.90;1484.80;;;;;;5120149;27;20362;-75
2022/06/20 07:12:00;;;;;;;7.45;2.80;;;692.10;1510.40;;;;;;5112220;28;20034;-76
2022/06/20 07:14:25;;;;;;;5.50;2.67;;;716.80;1510.40;;;;;;5112509;28;20016;-74
2022/06/20 07:16:59;;;;;;;9.18;2.70;;;716.90;1536.00;;;;;;5112309;28;20115;-77
2022/06/20 07:19:26;;;;;;;7.03;3.13;;;716.90;1510.40;;;;;;5097184;27;20016;-77
2022/06/20 07:21:53;;;;;;;10.15;3.35;;;717.10;1510.40;;;;;;5104033;28;20043;-77
2022/06/20 07:24:23;;;;;;;5.40;2.33;;;717.10;1484.80;;;;;;5115367;28;20152;-77
2022/06/20 07:26:58;;;;;;;8.82;3.05;;;717.20;1484.80;;;;;;5133393;27;20037;-77
2022/06/20 07:29:34;;;;;;;5.80;2.80;;;717.30;1459.20;;;;;;5132909;27;20183;-78
2022/06/20 07:32:01;;;;;;;;;;;717.20;1459.20;;;;;;5115195;27;20118;-77
2022/06/20 07:34:41;;;;;;;4.55;2.42;;;717.40;1484.80;;;;;;5114511;27;19953;-76
2022/06/20 07:37:17;;;;;;;10.25;2.88;;;717.40;1459.20;;;;;;5104317;28;20048;-78
2022/06/20 07:40:23;;;;;;;4.80;2.85;;;717.40;1433.60;;;;;;5130157;28;20007;-76
2022/06/20 07:43:00;;;;;;;8.68;3.03;;;717.50;1459.20;;;;;;5132957;28;20027;-78
2022/06/20 07:45:34;;;;;;;9.38;2.85;;;717.70;1433.60;;;;;;5121083;28;20020;-79
2022/06/20 07:48:29;;;;;;;5.38;3.25;;;717.70;1433.60;;;;;;5108534;28;20019;-78
2022/06/20 07:51:01;;;;;;;6.13;3.08;;;742.50;1459.20;;;;;;5128739;27;20039;-77
2022/06/20 07:53:40;;;;;;;5.45;2.72;;;742.60;1408.00;;;;;;5105660;27;20107;-78
2022/06/20 07:56:15;;;;;;;14.23;3.83;;;742.70;1408.00;;;;;;5104306;27;20023;-78
2022/06/20 07:58:52;;;;;;;11.63;4.10;;;742.80;1408.00;;;;;;5118667;27;20575;-78
2022/06/20 08:01:30;;;;;;;6.63;3.70;;;742.80;1382.40;;;;;;5119642;27;20035;-77
2022/06/20 08:04:01;;;;;;;6.18;2.95;;;742.90;1382.40;;;;;;5115963;28;20027;-76
2022/06/20 08:06:36;;;;;;;8.07;2.97;;;742.90;1356.80;;;;;;5116051;28;20385;-76
2022/06/20 08:09:19;;;;;;;10.32;4.18;;;743.00;1356.80;;;;;;5114220;27;20019;-77
2022/06/20 08:11:47;;;;;;;5.43;3.75;;;743.10;1356.80;;;;;;5118130;27;20027;-77
2022/06/20 08:14:56;;;;;;;4.93;3.35;;;743.20;1331.20;;;;;;5135602;27;20488;-77
2022/06/20 08:17:23;;;;;;;6.13;3.65;;;768.00;1305.60;;;;;;5034653;28;20513;-77
2022/06/20 08:19:50;;;;;;;9.13;4.20;;;743.30;1305.60;;;;;;5032810;28;20503;-79
2022/06/20 08:22:26;;;;;;;7.53;3.42;;;768.00;1305.60;;;;;;5033050;28;20033;-76
2022/06/20 08:25:12;;;;;;;4.65;2.80;;;768.10;1305.60;;;;;;5032883;28;20585;-77
2022/06/20 08:27:42;;;;;;;;;;;768.10;1280.00;;;;;;5033358;28;20079;-76
2022/06/20 08:30:30;;;;;;;10.80;3.22;;;768.20;1305.60;;;;;;5030753;28;19905;-76
2022/06/20 08:33:22;;;;;;;5.53;3.08;;;768.30;1305.60;;;;;;5051458;28;20114;-77
2022/06/20 08:35:53;;;;;;;4.45;2.83;;;768.50;1280.00;;;;;;5053013;28;20190;-77
2022/06/20 08:38:30;;;;;;;7.90;3.10;;;768.40;1280.00;;;;;;5053145;28;20013;-78
2022/06/20 08:41:39;;;;;;;5.05;3.13;;;768.50;1254.40;;;;;;5052751;28;20056;-78
2022/06/20 08:44:34;;;;;;;4.88;3.00;;;768.60;1254.40;;;;;;4973974;28;20034;-76
2022/06/20 08:47:37;;;;;;;7.45;3.28;;;768.60;1254.40;;;;;;4978095;28;20496;-77
2022/06/20 08:50:29;;;;;;;9.63;2.85;;;768.60;1228.80;;;;;;5048132;28;20025;-77
2022/06/20 08:53:22;;;;;;;7.53;2.95;;;768.70;1254.40;;;;;;5009700;28;20061;-80
2022/06/20 08:56:20;;;;;;;9.43;3.13;;;768.90;1254.40;;;;;;4993312;28;20600;-76
2022/06/20 08:58:54;;;;;;;7.60;3.13;;;793.60;1280.00;;;;;;4983193;28;20126;-75
2022/06/20 09:01:52;;;;;;;4.57;2.90;;;793.70;1280.00;;;;;;4992172;28;20523;-77
2022/06/20 09:04:30;;;;;;;3.47;2.80;;;793.70;1254.40;;;;;;5005630;28;20510;-75
2022/06/20 09:07:23;;;;;;;4.32;2.80;;;793.80;1254.40;;;;;;5012625;28;20034;-75
2022/06/20 09:10:08;;;;;;;6.78;3.33;;;793.90;1254.40;;;;;;5010385;28;20038;-75
2022/06/20 09:12:52;;;;;;;6.90;2.85;;;793.90;1228.80;;;;;;4993441;28;20046;-76
2022/06/20 09:16:12;;;;;;;9.48;4.10;;;794.00;1228.80;;;;;;5011755;28;20026;-78
2022/06/20 09:18:40;;;;;;;25.40;22.73;;;794.00;1203.20;;;;;;4919116;29;20028;-78
2022/06/20 09:21:11;;;;;;;9.88;3.47;;;794.20;1228.80;;;;;;4954220;28;20417;-76
2022/06/20 09:24:01;;;;;;;14.27;3.53;;;794.10;1203.20;;;;;;4992957;28;20054;-77
2022/06/20 09:26:45;;;;;;;5.78;3.25;;;794.30;1203.20;;;;;;4992861;28;20512;-76
2022/06/20 09:29:20;;;;;;;8.15;3.00;;;794.40;1203.20;;;;;;4997905;28;20498;-76
2022/06/20 09:31:52;;;;;;;5.05;3.03;;;819.20;1203.20;;;;;;5017883;28;20026;-75
2022/06/20 09:34:30;;;;;;;8.48;2.67;;;819.20;1152.00;;;;;;5024091;28;20042;-76
2022/06/20 09:37:11;;;;;;;7.00;3.00;;;819.20;1126.40;;;;;;5020154;28;20022;-76
2022/06/20 09:39:55;;;;;;;5.47;2.60;;;819.50;1152.00;;;;;;5010275;28;20096;-76
2022/06/20 09:42:32;;;;;;;4.57;3.13;;;819.50;1100.80;;;;;;4995280;28;20053;-77
2022/06/20 09:45:14;;;;;;;5.32;2.80;;;819.60;1126.40;;;;;;5010255;28;20444;-77
2022/06/20 09:47:48;;;;;;;5.78;2.60;;;819.80;1126.40;;;;;;5011889;28;20080;-75
2022/06/20 09:50:39;;;;;;;4.13;2.70;;;819.80;1100.80;;;;;;5011360;28;20024;-76
2022/06/20 09:53:37;;;;;;;4.03;2.88;;;820.00;1126.40;;;;;;5081773;28;20028;-75
2022/06/20 09:56:22;;;;;;;8.02;3.13;;;820.10;1100.80;;;;;;5031041;28;20030;-75
2022/06/20 09:59:13;;;;;;;13.02;3.72;;;820.10;1075.20;;;;;;5031092;28;20025;-76
2022/06/20 10:01:52;;;;;;;5.45;2.70;;;844.80;1100.80;;;;;;5028171;28;20049;-75
2022/06/20 10:04:43;;;;;;;7.78;2.80;;;845.00;1075.20;;;;;;5030726;28;20060;-75
2022/06/20 10:07:23;;;;;;;5.43;2.20;;;845.00;1075.20;;;;;;5030872;28;20120;-75
2022/06/20 10:10:08;;;;;;;10.18;2.75;;;845.10;1075.20;;;;;;5030706;28;20092;-76
2022/06/20 10:13:06;;;;;;;5.90;2.70;;;845.20;1100.80;;;;;;5029819;28;20120;-75
2022/06/20 10:16:08;;;;;;;7.60;2.40;;;845.20;1049.60;;;;;;5011255;28;20042;-76
2022/06/20 10:18:53;;;;;;;4.85;3.28;;;845.70;1075.20;;;;;;5020083;28;20040;-74
2022/06/20 10:21:28;;;;;;;8.77;2.97;;;870.40;1075.20;;;;;;5013916;28;20034;-75
2022/06/20 10:24:14;;;;;;;7.63;2.92;;;845.70;1049.60;;;;;;5021654;28;20037;-75
2022/06/20 10:26:50;;;;;;;4.00;2.78;;;845.70;1024.00;;;;;;5030947;28;20523;-76
2022/06/20 10:29:19;;;;;;;4.05;2.70;;;870.40;1049.60;;;;;;5026816;28;20030;-77
2022/06/20 10:32:02;;;;;;;6.88;2.65;;;870.50;1024.00;;;;;;5010370;28;20038;-76
2022/06/20 10:34:51;;;;;;;7.47;3.10;;;870.50;998.40;;;;;;5068618;28;20037;-76
2022/06/20 10:37:27;;;;;;;5.85;2.72;;;870.80;998.40;;;;;;5070481;28;20028;-76
2022/06/20 10:40:10;;;;;;;6.93;2.45;;;870.90;1024.00;;;;;;5080069;28;20081;-76
2022/06/20 10:43:01;;;;;;;8.95;3.00;;;870.90;1024.00;;;;;;5076698;28;20028;-76
2022/06/20 10:45:46;;;;;;;6.53;2.60;;;871.00;972.80;;;;;;5079175;28;20032;-76
2022/06/20 10:48:50;;;;;;;5.78;2.72;;;871.00;972.80;;;;;;5069857;28;20028;-77
2022/06/20 10:51:34;;;;;;;6.03;2.55;;;871.00;972.80;;;;;;5091866;28;20319;-77
2022/06/20 10:54:27;;;;;;;5.30;2.70;;;871.10;947.20;;;;;;5111680;28;20015;-76
2022/06/20 10:57:08;;;;;;;6.80;2.60;;;871.10;998.40;;;;;;5110674;28;20012;-75
2022/06/20 11:00:10;;;;;;;4.72;2.65;;;871.10;947.20;;;;;;5110649;28;20031;-76
2022/06/20 11:03:13;;;;;;;11.32;3.28;;;871.30;947.20;;;;;;5112684;28;20032;-77
2022/06/20 11:05:46;;;;;;;4.20;2.10;;;871.30;947.20;;;;;;5111420;28;20023;-76
2022/06/20 11:08:18;;;;;;;9.55;2.47;;;896.00;921.60;;;;;;5125050;27;20026;-75
2022/06/20 11:11:04;;;;;;;4.75;2.55;;;896.00;921.60;;;;;;5133283;27;20080;-75
2022/06/20 11:13:49;;;;;;;3.63;2.40;;;871.30;870.40;;;;;;5114947;27;20015;-76
2022/06/20 11:16:51;;;;;;;5.20;2.03;;;896.00;896.00;;;;;;5133176;27;20023;-75
2022/06/20 11:19:59;;;;;;;4.43;2.22;;;896.00;896.00;;;;;;5133094;27;20011;-76
2022/06/20 11:22:43;;;;;;;3.95;2.20;;;896.50;870.40;;;;;;5119598;27;20095;-77
2022/06/20 11:25:27;;;;;;;3.42;2.53;;;896.50;870.40;;;;;;5133014;27;20023;-77
2022/06/20 11:28:25;;;;;;;9.82;2.63;;;896.50;896.00;;;;;;5114731;27;20106;-75
2022/06/20 11:31:15;;;;;;;3.88;2.38;;;896.60;921.60;;;;;;5129829;27;20082;-75
2022/06/20 11:34:02;;;;;;;5.38;2.40;;;896.00;921.60;;;;;;5124412;27;20076;-76
2022/06/20 11:36:33;;;;;;;4.57;2.15;;;896.10;921.60;;;;;;5105644;27;20051;-77
2022/06/20 11:39:11;;;;;;;2.50;1.98;;;896.10;870.40;;;;;;5133120;28;20064;-77
2022/06/20 11:41:50;;;;;;;4.00;2.40;;;896.20;870.40;;;;;;5103750;28;20481;-78
2022/06/20 11:44:19;;;;;;;6.78;2.63;;;896.50;870.40;;;;;;5108933;28;20012;-77
2022/06/20 11:47:25;;;;;;;6.93;2.45;;;896.50;870.40;;;;;;5112042;28;20016;-77
2022/06/20 11:50:13;;;;;;;5.30;3.08;;;896.80;844.80;;;;;;5029415;28;20180;-78
2022/06/20 11:52:57;;;;;;;4.53;2.20;;;896.80;870.40;;;;;;5044108;28;20033;-79
2022/06/20 11:55:39;;;;;;;5.40;2.13;;;896.80;844.80;;;;;;5049422;28;20494;-77
2022/06/20 11:58:23;;;;;;;3.45;2.40;;;896.90;870.40;;;;;;5046527;28;20051;-77
2022/06/20 12:00:56;;;;;;;6.53;2.10;;;896.60;896.00;;;;;;5041235;28;20033;-77
2022/06/20 12:03:25;;;;;;;7.43;2.45;;;896.70;870.40;;;;;;5049347;28;20041;-78
2022/06/20 12:06:01;;;;;;;3.78;2.10;;;896.60;896.00;;;;;;5021204;28;20132;-78
2022/06/20 12:08:43;;;;;;;3.10;2.15;;;896.60;896.00;;;;;;5048015;28;20036;-76
2022/06/20 12:11:29;;;;;;;4.32;2.30;;;896.90;896.00;;;;;;5049458;28;20021;-77
2022/06/20 12:14:01;;;;;;;3.28;2.33;;;896.90;896.00;;;;;;5049561;28;20033;-77
2022/06/20 12:16:42;;;;;;;3.97;2.28;;;896.90;896.00;;;;;;5039732;28;20108;-76
2022/06/20 12:25:28;;;;;;;9.18;2.42;;;921.70;921.60;;;;;;5058294;28;20053;-77
2022/06/20 12:27:54;;;;;;;5.53;2.13;;;896.90;844.80;;;;;;5009440;28;20113;-76
2022/06/20 12:30:20;;;;;;;5.07;2.20;;;921.70;870.40;;;;;;4992443;28;20210;-77
2022/06/20 12:32:50;;;;;;;5.70;2.30;;;921.60;896.00;;;;;;5009246;28;20049;-77
2022/06/20 12:36:01;;;;;;;4.63;2.30;;;921.60;870.40;;;;;;4990800;28;20369;-76
2022/06/20 12:39:01;;;;;;;6.95;2.30;;;921.70;896.00;;;;;;4878271;29;20051;-76
2022/06/20 12:41:31;;;;;;;3.38;2.30;;;921.70;870.40;;;;;;4877833;29;20163;-77
2022/06/20 12:44:38;;;;;;;11.15;2.63;;;922.00;870.40;;;;;;4878552;29;20540;-77
2022/06/20 12:47:10;;;;;;;3.42;2.13;;;921.80;870.40;;;;;;4877834;29;20373;-77
2022/06/20 12:50:08;;;;;;;3.65;2.47;;;921.80;896.00;;;;;;4876488;29;20104;-76
2022/06/20 12:52:39;;;;;;;3.58;2.30;;;922.00;896.00;;;;;;4878386;29;20137;-77
2022/06/20 12:55:29;;;;;;;4.78;2.20;;;922.00;870.40;;;;;;4878218;29;20033;-77
2022/06/20 12:58:29;;;;;;;4.28;2.42;;;922.00;844.80;;;;;;4878450;29;20546;-77
2022/06/20 13:00:57;;;;;;;3.55;2.50;;;922.00;870.40;;;;;;4873717;29;20550;-77
2022/06/20 13:03:26;;;;;;;3.00;2.30;;;922.00;870.40;;;;;;4886742;29;20068;-76
2022/06/20 13:06:11;;;;;;;6.45;2.95;;;922.00;896.00;;;;;;4943423;29;20511;-76
2022/06/20 13:08:55;;;;;;;3.17;2.30;;;922.10;870.40;;;;;;4942286;29;20043;-76
2022/06/20 13:11:50;;;;;;;6.10;2.25;;;922.00;870.40;;;;;;4943884;29;20031;-77
2022/06/20 13:14:50;;;;;;;4.60;2.75;;;922.10;870.40;;;;;;4949103;28;20078;-77
2022/06/20 13:17:27;;;;;;;5.38;2.45;;;922.10;870.40;;;;;;5086881;28;20016;-78
2022/06/20 13:19:56;;;;;;;4.05;2.38;;;922.10;870.40;;;;;;5091504;28;20016;-78
2022/06/20 13:22:37;;;;;;;3.33;2.22;;;922.10;844.80;;;;;;5083627;28;20031;-77
2022/06/20 13:25:21;;;;;;;5.60;2.33;;;922.10;819.20;;;;;;5114311;28;20019;-76
2022/06/20 13:27:50;;;;;;;2.78;2.20;;;922.20;844.80;;;;;;5104533;28;20028;-76